Fargo (FAR/KFAR)

Map

Destinations

Information

Location
Fargo, ND
Local Time
17:21 / 5:21 pm
GMT Time
23:21 / 11:21 pm
Gates
2
No FAA reported delays
METAR KFAR 182304Z 17005KT 10SM CLR M02/M05 A2972 RMK AO2 T10171050 $
TAF KFAR 181733Z 1818/1918 20006KT P6SM OVC200 FM191400 22009KT P6SM SCT120